EDT,Max TemperatureF,Mean TemperatureF,Min TemperatureF,Max Dew PointF,MeanDew PointF,Min DewpointF,Max Humidity, Mean Humidity, Min Humidity, Max Sea Level PressureIn, Mean Sea Level PressureIn, Min Sea Level PressureIn, Max VisibilityMiles, Mean VisibilityMiles, Min VisibilityMiles, Max Wind SpeedMPH, Mean Wind SpeedMPH, Max Gust SpeedMPH,PrecipitationIn, CloudCover, Events, WindDirDegrees
2012-10-1,80,73,66,79,72,66,100,97,79,29.89,29.83,29.80,7,5,1,7,4,,0.67,6,Rain-Thunderstorm,72
2012-10-2,86,80,73,79,76,72,100,92,66,30.00,29.88,29.79,10,6,4,12,3,17,0.03,5,Rain-Thunderstorm,173
2012-10-3,86,80,73,77,73,64,100,88,48,30.21,30.10,30.01,10,7,4,9,4,,0.01,4,Rain,192
2012-10-4,78,73,68,72,70,68,100,91,74,30.24,30.20,30.17,10,6,4,5,0,,0.00,5,Rain,323
2012-10-5,82,72,62,70,64,61,100,85,48,30.20,30.11,30.04,7,6,3,8,1,,0.00,0,,21
2012-10-6,86,72,59,70,65,59,100,84,48,30.04,29.97,29.89,7,6,4,8,1,,0.00,2,,228
2012-10-7,86,73,60,72,66,55,100,83,55,30.09,29.98,29.93,10,6,0,9,2,,0.00,3,Fog-Thunderstorm,302
2012-10-8,60,56,51,59,54,52,100,94,82,30.15,30.09,30.05,10,7,2,12,6,16,0.30,8,Rain-Thunderstorm,11
2012-10-9,59,55,51,55,53,52,100,96,82,30.14,30.10,30.07,7,6,2,7,3,,0.00,8,,344
2012-10-10,71,60,50,61,54,50,100,88,57,30.14,30.09,30.01,7,4,0,9,1,,0.00,4,Fog,271
2012-10-11,69,60,50,55,50,45,100,78,43,30.29,30.22,30.12,7,6,3,15,2,,0.00,0,,26
2012-10-12,75,60,44,59,52,45,100,84,47,30.28,30.22,30.16,7,6,3,6,0,,0.00,0,,331
2012-10-13,73,62,51,55,51,48,100,75,46,30.41,30.34,30.29,10,7,5,12,6,16,0.00,0,,39
2012-10-14,80,65,50,64,56,50,100,80,39,30.33,30.19,30.07,10,7,4,7,1,,0.00,0,,117
2012-10-15,80,68,55,70,63,55,100,89,65,30.06,29.89,29.75,10,6,0,12,2,24,0.30,4,Fog-Rain-Thunderstorm,216
2012-10-16,69,58,48,59,49,45,100,75,40,29.98,29.91,29.85,10,7,5,12,2,,0.00,0,,5
2012-10-17,69,58,46,57,52,46,100,87,56,30.02,29.96,29.93,7,6,5,7,1,,0.00,0,,67
2012-10-18,78,64,51,70,61,52,100,90,61,29.94,29.86,29.81,10,6,5,9,1,,0.00,3,,156
2012-10-19,77,64,50,70,57,45,100,77,32,29.84,29.80,29.76,10,6,1,8,3,,0.06,2,Rain-Thunderstorm,237
2012-10-20,73,58,44,55,49,43,100,80,35,29.94,29.86,29.80,10,7,5,8,1,18,0.00,0,,245
2012-10-21,69,58,44,54,47,43,100,75,40,30.16,30.07,29.94,10,7,5,12,2,16,0.00,0,,6
2012-10-22,73,57,41,55,46,41,100,77,36,30.25,30.19,30.15,10,7,5,7,1,,0.00,0,,35
2012-10-23,77,60,42,61,51,43,100,80,38,30.22,30.17,30.12,10,7,5,5,0,,0.00,0,,157
2012-10-24,80,65,50,68,57,50,100,86,48,30.20,30.15,30.10,10,5,0,5,0,,0.00,3,Fog,76
2012-10-25,82,68,53,66,60,54,100,82,48,30.13,30.10,30.06,10,6,0,12,2,16,0.00,1,Fog,73
2012-10-26,73,66,60,64,62,59,100,84,64,30.06,29.94,29.82,10,7,5,14,6,23,0.00,2,,16
2012-10-27,68,66,64,64,62,57,100,89,77,29.80,29.63,29.55,10,9,5,15,10,26,0.16,8,Rain,7
2012-10-28,68,60,53,57,53,52,100,70,56,29.58,29.56,29.53,10,7,4,13,6,24,0.00,6,,344
2012-10-29,57,52,46,52,40,34,88,62,47,29.59,29.55,29.49,10,7,5,12,4,22,0.00,4,,285
2012-10-30,59,52,46,41,35,34,76,56,42,29.70,29.56,29.48,10,7,5,13,7,21,0.00,5,,237
2012-10-31,50,44,37,37,35,34,87,79,54,29.77,29.73,29.71,10,7,5,5,2,,0.00,0,,217